Terminal Aerodrome Forecast
Issued by NWS

Home | Current Version | Previous Version | Text Only | Print | Product List | Glossary On
Versions: 1 2 3 4 5 6 7 8 9 10 11 12
000
FTUS42 TJSJ 061720
TAFJMZ
TAF
TJMZ 061720Z 0618/0718 VRB04KT P6SM VCSH SCT025 SCT060
     FM062200 06006KT P6SM SCT030
     FM071530 27010KT P6SM SCT030 SCT070
      AMD NOT SKED=

USA.gov is the U.S. government's official web portal to all federal, state and local government web resources and services.